Norcross, Minnesota
Current Conditions -  °F | °C
As of 11:14 AM on Sunday 21 Dec 2014 (Local Time) from KY63 Reporting Station
Haze Haze  
Wind Chill: 20°   Ceiling: 500
Heat Index: 31°   Visibility: 4mi
Dew Point: 30°   Wind: 16mph
Humidity: 96%   Direction: 150°SSE
Pressure: 29.71"   Gusts: NA
Location:  45.87°N, 96.2°W
Report Text: KY63 211714Z AUTO 15014KT 4SM BR OVC005 M01/M01 A2971 RMK AO2 T10061011
Loading
Personal Weather Stations






























Interactive Weather Map New forecast layout! Learn more

10-Day Weather Forecast

Advertisements
Track Severe Weather on mobile